Time;durP1;ratioP1;P1;durP2;ratioP2;P2;SDS_P1;SDS_P2;PMS_P1;PMS_P2;Temp;Humidity;BMP_temperature;BMP_pressure;BME280_temperature;BME280_humidity;BME280_pressure;Samples;Min_cycle;Max_cycle;Signal;HPM_P1;HPM_P2
2022/02/19 00:00:08;;;;;;;0.10;0.10;;;;;;;7.05;77.88;98009.34;5029412;28;20060;-60
2022/02/19 00:02:40;;;;;;;3.25;0.50;;;;;;;7.07;77.18;98001.69;5021208;28;20040;-60
2022/02/19 00:05:06;;;;;;;2.30;0.35;;;;;;;7.08;77.31;98013.94;5027787;28;20387;-59
2022/02/19 00:07:31;;;;;;;3.47;0.45;;;;;;;7.09;78.11;98012.75;5031450;28;20032;-58
2022/02/19 00:09:57;;;;;;;1.00;0.35;;;;;;;7.06;77.96;98022.34;5027826;28;20025;-60
2022/02/19 00:12:23;;;;;;;1.48;0.32;;;;;;;7.04;79.11;98047.97;5021260;28;20420;-60
2022/02/19 00:14:51;;;;;;;0.45;0.20;;;;;;;7.02;79.17;98024.28;5031590;28;20038;-61
2022/02/19 00:17:16;;;;;;;1.02;0.25;;;;;;;7.07;78.80;98071.25;5018900;28;20393;-59
2022/02/19 00:19:42;;;;;;;0.75;0.60;;;;;;;7.07;79.15;98063.22;5018048;28;20044;-59
2022/02/19 00:22:07;;;;;;;0.73;0.73;;;;;;;7.02;79.03;98036.91;5013483;28;20447;-57
2022/02/19 00:24:39;;;;;;;1.10;0.85;;;;;;;6.99;78.37;98051.81;5020614;28;20051;-58
2022/02/19 00:27:04;;;;;;;0.20;0.20;;;;;;;7.05;78.34;98039.53;5026138;28;20033;-60
2022/02/19 00:29:30;;;;;;;0.60;0.32;;;;;;;6.99;78.74;98040.34;5038524;28;20094;-59
2022/02/19 00:31:56;;;;;;;2.58;0.70;;;;;;;7.08;79.67;98059.41;5028007;28;20031;-58
2022/02/19 00:34:23;;;;;;;0.55;0.30;;;;;;;7.24;79.14;98055.03;5032150;28;20037;-59
2022/02/19 00:36:48;;;;;;;0.17;0.17;;;;;;;7.17;78.85;98041.75;5033216;28;20484;-58
2022/02/19 00:39:14;;;;;;;4.78;0.75;;;;;;;7.19;79.11;98049.38;5035047;28;20035;-59
2022/02/19 00:41:39;;;;;;;0.03;0.03;;;;;;;7.06;79.40;98043.75;5035296;28;20036;-59
2022/02/19 00:44:06;;;;;;;0.20;0.20;;;;;;;7.07;79.60;98050.63;5044855;28;20462;-60
2022/02/19 00:46:32;;;;;;;0.32;0.20;;;;;;;7.05;79.58;98082.34;5044008;28;20033;-58
2022/02/19 00:48:59;;;;;;;0.20;0.17;;;;;;;6.98;80.06;98079.75;5038597;28;20417;-58
2022/02/19 00:51:25;;;;;;;0.30;0.30;;;;;;;7.00;80.73;98090.03;5037681;28;20033;-60
2022/02/19 00:53:50;;;;;;;0.10;0.10;;;;;;;6.93;81.45;98074.78;5043679;28;20460;-60
2022/02/19 00:56:16;;;;;;;1.58;0.32;;;;;;;6.91;82.24;98047.69;5043589;28;20381;-60
2022/02/19 00:58:41;;;;;;;1.88;0.30;;;;;;;6.97;82.09;98074.75;5015762;28;20037;-60
2022/02/19 01:01:07;;;;;;;1.70;0.57;;;;;;;6.91;81.59;98066.41;5028250;28;20040;-60
2022/02/19 01:03:52;;;;;;;4.65;0.38;;;;;;;6.91;81.93;98068.34;5026401;28;20460;-61
2022/02/19 01:06:19;;;;;;;1.20;1.05;;;;;;;6.89;82.41;98078.66;5022563;28;20497;-60
2022/02/19 01:08:49;;;;;;;0.60;0.60;;;;;;;6.84;83.25;98090.53;5016189;28;20112;-60
2022/02/19 01:11:15;;;;;;;0.45;0.40;;;;;;;6.90;83.24;98080.19;5032655;28;20025;-61
2022/02/19 01:13:41;;;;;;;0.30;0.30;;;;;;;6.82;83.19;98103.53;5017165;28;20035;-61
2022/02/19 01:16:06;;;;;;;3.97;0.60;;;;;;;6.85;83.40;98093.97;5013579;28;20109;-60
2022/02/19 01:18:32;;;;;;;4.20;0.20;;;;;;;6.93;83.99;98101.53;5022372;28;20044;-59
2022/02/19 01:20:57;;;;;;;3.30;0.63;;;;;;;6.94;85.42;98127.16;5019323;28;20109;-61
2022/02/19 01:23:23;;;;;;;4.82;0.32;;;;;;;6.81;88.04;98136.03;5006812;28;20477;-60
2022/02/19 01:25:48;;;;;;;4.78;0.43;;;;;;;6.69;89.82;98113.19;5008915;28;20404;-61
2022/02/19 01:28:14;;;;;;;1.10;0.45;;;;;;;6.51;91.36;98136.56;5013810;28;20450;-61
2022/02/19 01:30:39;;;;;;;0.22;0.22;;;;;;;6.56;93.06;98136.19;5029306;28;20502;-60
2022/02/19 01:33:05;;;;;;;0.28;0.28;;;;;;;6.34;93.11;98124.81;5025558;28;20128;-60
2022/02/19 01:35:32;;;;;;;0.30;0.30;;;;;;;6.36;93.81;98132.44;5009078;28;20038;-60
2022/02/19 01:37:59;;;;;;;1.23;1.13;;;;;;;6.22;94.24;98140.50;5008979;28;20069;-61
2022/02/19 01:40:25;;;;;;;0.57;0.43;;;;;;;6.21;95.42;98128.31;5021861;28;20104;-60
2022/02/19 01:42:51;;;;;;;2.15;0.38;;;;;;;6.15;97.45;98154.66;5035809;28;20506;-56
2022/02/19 01:45:18;;;;;;;4.65;0.88;;;;;;;6.08;97.86;98152.00;5009210;28;20080;-57
2022/02/19 01:47:43;;;;;;;0.22;0.22;;;;;;;6.16;98.97;98174.88;5007082;28;20038;-59
2022/02/19 01:50:15;;;;;;;2.10;0.70;;;;;;;6.20;98.72;98185.56;5019120;28;20029;-60
2022/02/19 01:52:42;;;;;;;5.13;1.02;;;;;;;6.13;100.00;98202.38;5025435;28;20037;-60
2022/02/19 01:55:13;;;;;;;0.35;0.32;;;;;;;6.07;100.00;98222.63;5028020;28;20272;-59
2022/02/19 01:58:06;;;;;;;0.57;0.28;;;;;;;5.98;100.00;98264.22;5016084;28;20411;-60
2022/02/19 02:00:50;;;;;;;0.25;0.25;;;;;;;6.00;100.00;98272.63;5026806;28;20574;-59
2022/02/19 02:03:35;;;;;;;0.30;0.30;;;;;;;5.92;100.00;98309.22;5019129;28;20037;-57
2022/02/19 02:06:09;;;;;;;0.40;0.40;;;;;;;6.02;100.00;98286.34;5020426;28;20061;-57
2022/02/19 02:08:37;;;;;;;1.17;0.30;;;;;;;6.01;100.00;98316.88;5018887;28;20393;-59
2022/02/19 02:11:03;;;;;;;0.20;0.20;;;;;;;5.93;100.00;98301.97;5011646;28;20445;-59
2022/02/19 02:13:34;;;;;;;2.55;0.43;;;;;;;5.82;100.00;98325.22;5009484;28;20026;-57
2022/02/19 02:16:00;;;;;;;3.10;0.20;;;;;;;5.75;100.00;98346.59;5028173;28;20031;-57
2022/02/19 02:18:45;;;;;;;1.67;0.38;;;;;;;5.77;100.00;98331.69;5035635;28;20040;-58
2022/02/19 02:21:11;;;;;;;2.08;0.22;;;;;;;5.73;100.00;98359.53;5029194;28;20459;-57
2022/02/19 02:23:39;;;;;;;2.17;0.40;;;;;;;5.87;100.00;98362.25;5023601;28;20030;-59
2022/02/19 02:26:05;;;;;;;0.10;0.10;;;;;;;5.88;100.00;98363.78;5028132;28;20052;-58
2022/02/19 02:28:31;;;;;;;2.28;0.30;;;;;;;5.85;100.00;98365.31;5010504;28;20030;-59
2022/02/19 02:30:57;;;;;;;0.05;0.05;;;;;;;5.64;100.00;98375.91;5028382;28;20028;-60
2022/02/19 02:33:23;;;;;;;0.40;0.20;;;;;;;5.62;100.00;98388.88;5021213;28;20030;-59
2022/02/19 02:36:00;;;;;;;0.20;0.20;;;;;;;5.70;100.00;98384.31;5026138;28;20033;-58
2022/02/19 02:38:35;;;;;;;8.48;1.13;;;;;;;5.52;100.00;98423.56;5021616;28;20112;-59
2022/02/19 02:41:03;;;;;;;0.85;0.32;;;;;;;5.62;100.00;98428.16;4996335;28;20408;-60
2022/02/19 02:43:29;;;;;;;0.15;0.15;;;;;;;5.63;100.00;98409.09;5021993;28;20036;-60
2022/02/19 02:45:55;;;;;;;0.15;0.15;;;;;;;5.52;100.00;98439.56;5013972;28;20062;-60
2022/02/19 02:48:22;;;;;;;0.47;0.35;;;;;;;5.61;100.00;98437.31;5012785;28;20041;-58
2022/02/19 02:50:49;;;;;;;0.17;0.17;;;;;;;5.72;100.00;98432.75;5013522;28;20431;-59
2022/02/19 02:53:14;;;;;;;0.20;0.20;;;;;;;5.81;100.00;98438.50;5031230;28;20428;-59
2022/02/19 02:55:41;;;;;;;3.05;0.20;;;;;;;5.79;100.00;98456.81;5031691;28;20025;-58
2022/02/19 02:58:07;;;;;;;1.55;0.43;;;;;;;5.80;100.00;98447.66;5030520;28;20033;-60
2022/02/19 03:00:33;;;;;;;2.58;0.55;;;;;;;5.83;100.00;98442.34;5023526;28;20034;-60
2022/02/19 03:02:58;;;;;;;2.70;0.70;;;;;;;5.79;100.00;98472.84;5021555;28;20029;-60
2022/02/19 03:05:27;;;;;;;0.10;0.10;;;;;;;5.73;100.00;98471.69;5016516;28;20034;-59
2022/02/19 03:07:52;;;;;;;0.10;0.10;;;;;;;5.76;100.00;98477.03;5025090;28;20041;-59
2022/02/19 03:10:18;;;;;;;0.20;0.20;;;;;;;5.90;100.00;98490.47;5023568;28;20508;-60
2022/02/19 03:12:47;;;;;;;0.30;0.30;;;;;;;5.91;100.00;98501.88;5024887;28;20063;-60
2022/02/19 03:15:18;;;;;;;0.20;0.20;;;;;;;5.97;100.00;98508.41;5024081;28;20041;-60
2022/02/19 03:17:45;;;;;;;0.38;0.38;;;;;;;5.89;100.00;98531.66;5029742;28;20064;-60
2022/02/19 03:20:16;;;;;;;1.02;0.20;;;;;;;5.75;100.00;98517.47;5031148;28;20033;-60
2022/02/19 03:22:44;;;;;;;0.55;0.30;;;;;;;5.79;100.00;98551.03;5028101;28;20123;-60
2022/02/19 03:25:15;;;;;;;3.30;0.45;;;;;;;5.84;100.00;98544.59;5028512;28;20083;-60
2022/02/19 03:27:42;;;;;;;0.52;0.30;;;;;;;5.91;100.00;98544.63;5030368;28;20099;-60
2022/02/19 03:30:13;;;;;;;0.00;0.00;;;;;;;5.95;100.00;98545.41;5027777;28;20029;-60
2022/02/19 03:32:40;;;;;;;0.75;0.47;;;;;;;6.05;100.00;98548.13;5027673;28;20039;-60
2022/02/19 03:35:11;;;;;;;1.27;0.30;;;;;;;5.92;100.00;98560.25;5010969;28;20065;-60
2022/02/19 03:38:00;;;;;;;0.30;0.30;;;;;;;5.89;100.00;98579.72;5017779;28;20037;-59
2022/02/19 03:40:43;;;;;;;0.60;0.13;;;;;;;6.11;100.00;98648.16;5037676;28;20044;-57
2022/02/19 03:43:08;;;;;;;4.97;0.55;;;;;;;6.14;100.00;98654.63;5031001;28;20455;-59
2022/02/19 03:45:37;;;;;;;0.68;0.40;;;;;;;5.93;100.00;98667.88;4995993;28;20511;-59
2022/02/19 03:48:26;;;;;;;1.17;0.20;;;;;;;5.60;100.00;98721.38;5034164;28;20593;-57
2022/02/19 03:50:52;;;;;;;1.67;0.57;;;;;;;5.29;100.00;98734.09;5032911;28;20765;-54
2022/02/19 03:53:17;;;;;;;0.00;0.00;;;;;;;4.99;100.00;98714.75;5022653;28;20079;-57
2022/02/19 03:55:43;;;;;;;0.10;0.10;;;;;;;5.03;100.00;98704.09;5025907;28;20033;-58
2022/02/19 03:58:09;;;;;;;0.10;0.10;;;;;;;5.01;100.00;98703.69;5047361;28;20413;-59
2022/02/19 04:00:36;;;;;;;0.10;0.10;;;;;;;4.89;100.00;98735.94;5033372;28;20033;-59
2022/02/19 04:03:02;;;;;;;0.05;0.05;;;;;;;4.81;100.00;98740.44;5029909;28;20522;-58
2022/02/19 04:05:31;;;;;;;0.10;0.10;;;;;;;4.78;100.00;98765.13;5030405;28;20041;-60
2022/02/19 04:07:57;;;;;;;0.40;0.20;;;;;;;4.78;100.00;98778.47;5029923;28;20024;-58
2022/02/19 04:10:24;;;;;;;0.20;0.20;;;;;;;4.70;100.00;98792.84;5031204;28;20124;-57
2022/02/19 04:12:51;;;;;;;0.10;0.10;;;;;;;4.82;100.00;98800.59;5031263;28;20037;-59
2022/02/19 04:15:30;;;;;;;0.52;0.52;;;;;;;4.93;100.00;98800.75;5032748;28;20401;-57
2022/02/19 04:17:59;;;;;;;0.82;0.40;;;;;;;4.96;100.00;98821.34;5015513;28;20129;-60
2022/02/19 04:20:26;;;;;;;1.88;0.25;;;;;;;5.08;100.00;98824.56;5021443;28;20556;-60
2022/02/19 04:22:52;;;;;;;0.10;0.10;;;;;;;5.04;100.00;98841.63;5031543;28;20124;-59
2022/02/19 04:25:18;;;;;;;0.20;0.20;;;;;;;5.04;100.00;98849.66;5029722;28;20025;-56
2022/02/19 04:27:44;;;;;;;0.10;0.10;;;;;;;5.09;100.00;98847.41;5026894;28;20037;-60
2022/02/19 04:30:10;;;;;;;0.60;0.32;;;;;;;5.14;100.00;98849.00;5029122;28;20036;-61
2022/02/19 04:32:41;;;;;;;7.78;0.28;;;;;;;5.15;100.00;98842.56;5028932;28;20484;-60
2022/02/19 04:35:07;;;;;;;0.25;0.17;;;;;;;5.13;100.00;98879.50;5026116;28;20086;-60
2022/02/19 04:37:37;;;;;;;0.10;0.10;;;;;;;5.15;100.00;98874.56;5028840;28;20021;-55
2022/02/19 04:40:06;;;;;;;0.10;0.10;;;;;;;5.23;100.00;98900.97;5029361;28;20215;-59
2022/02/19 04:42:34;;;;;;;0.22;0.22;;;;;;;5.24;100.00;98923.84;5017209;28;20030;-61
2022/02/19 04:45:10;;;;;;;0.10;0.10;;;;;;;5.24;100.00;98933.75;5010592;28;20042;-56
2022/02/19 04:47:42;;;;;;;0.82;0.40;;;;;;;5.08;100.00;98944.59;5007177;28;20038;-60
2022/02/19 04:50:10;;;;;;;0.70;0.28;;;;;;;5.13;100.00;98944.25;5027026;28;20025;-60
2022/02/19 04:52:36;;;;;;;0.10;0.10;;;;;;;5.21;100.00;98950.47;5027713;28;20051;-60
2022/02/19 04:55:03;;;;;;;0.47;0.47;;;;;;;5.17;100.00;98969.09;5028016;28;20676;-60
2022/02/19 04:57:28;;;;;;;1.05;0.60;;;;;;;5.02;100.00;98971.91;5024657;28;20044;-61
2022/02/19 04:59:54;;;;;;;0.20;0.10;;;;;;;5.02;100.00;98972.69;5024916;28;20592;-61
2022/02/19 05:02:26;;;;;;;0.13;0.08;;;;;;;5.02;100.00;98985.25;5027194;28;20029;-60
2022/02/19 05:04:51;;;;;;;0.30;0.20;;;;;;;4.96;100.00;98984.78;5028575;28;20120;-59
2022/02/19 05:07:23;;;;;;;4.28;0.25;;;;;;;4.98;100.00;98985.22;5023557;28;20444;-61
2022/02/19 05:09:49;;;;;;;0.70;0.17;;;;;;;4.97;100.00;98993.56;5019923;28;20040;-59
2022/02/19 05:12:17;;;;;;;3.40;0.90;;;;;;;5.09;100.00;99007.47;5026911;28;20030;-60
2022/02/19 05:14:44;;;;;;;0.50;0.15;;;;;;;5.02;100.00;99015.38;5028753;28;20116;-59
2022/02/19 05:17:52;;;;;;;0.30;0.30;;;;;;;5.06;100.00;99018.84;5024594;28;20195;-59
2022/02/19 05:20:23;;;;;;;0.20;0.20;;;;;;;5.06;100.00;99037.53;5027689;28;20033;-59
2022/02/19 05:22:50;;;;;;;0.10;0.10;;;;;;;5.09;100.00;99047.47;5027917;28;20033;-60
2022/02/19 05:25:23;;;;;;;0.13;0.13;;;;;;;5.16;100.00;99055.59;5029399;28;20032;-59
2022/02/19 05:27:49;;;;;;;0.10;0.10;;;;;;;5.12;100.00;99052.09;5027875;28;20040;-60
2022/02/19 05:30:15;;;;;;;0.10;0.10;;;;;;;5.07;100.00;99076.41;5028617;28;20025;-60
2022/02/19 05:33:01;;;;;;;0.10;0.10;;;;;;;5.05;100.00;99059.22;5029905;28;20455;-58
2022/02/19 05:35:30;;;;;;;0.20;0.20;;;;;;;5.09;100.00;99065.41;5023440;28;20030;-59
2022/02/19 05:37:56;;;;;;;0.10;0.10;;;;;;;5.07;100.00;99089.75;5026886;28;20120;-59
2022/02/19 05:40:22;;;;;;;0.20;0.20;;;;;;;5.05;100.00;99086.66;5010454;28;20191;-58
2022/02/19 05:42:47;;;;;;;3.25;0.52;;;;;;;5.00;100.00;99100.31;5024393;28;20117;-60
2022/02/19 05:45:32;;;;;;;0.40;0.30;;;;;;;5.06;100.00;99090.88;5022486;28;20510;-58
2022/02/19 05:47:58;;;;;;;0.10;0.10;;;;;;;5.15;100.00;99102.06;5026634;28;20042;-60
2022/02/19 05:50:50;;;;;;;;;;;;;;;5.08;100.00;99127.84;5025612;28;20033;-60
2022/02/19 05:53:54;;;;;;;0.22;0.15;;;;;;;5.16;100.00;99132.97;5033010;28;19913;-59
2022/02/19 05:56:20;;;;;;;3.72;0.20;;;;;;;5.15;100.00;99128.75;5028425;28;20037;-60
2022/02/19 05:58:45;;;;;;;1.25;0.28;;;;;;;5.28;100.00;99138.09;5027215;28;20032;-58
2022/02/19 06:01:17;;;;;;;0.30;0.30;;;;;;;5.21;100.00;99159.34;5022540;28;20138;-58
2022/02/19 06:03:48;;;;;;;1.02;0.50;;;;;;;5.21;100.00;99164.69;5025959;28;20488;-61
2022/02/19 06:06:18;;;;;;;0.30;0.20;;;;;;;5.16;100.00;99172.22;5027924;28;20033;-58
2022/02/19 06:08:44;;;;;;;3.83;0.50;;;;;;;5.16;100.00;99177.53;5027278;28;20036;-60
2022/02/19 06:11:10;;;;;;;0.20;0.20;;;;;;;5.11;100.00;99194.59;5017182;28;20116;-59
2022/02/19 06:13:54;;;;;;;0.80;0.30;;;;;;;4.98;100.00;99203.13;5028218;28;20048;-59
2022/02/19 06:16:20;;;;;;;0.03;0.03;;;;;;;5.06;100.00;99226.13;5027426;28;20045;-60
2022/02/19 06:19:05;;;;;;;0.10;0.10;;;;;;;4.95;100.00;99230.50;5026458;28;20052;-60
2022/02/19 06:21:31;;;;;;;0.20;0.20;;;;;;;4.90;100.00;99242.22;5024947;28;20041;-60
2022/02/19 06:23:57;;;;;;;0.55;0.25;;;;;;;4.91;100.00;99262.44;5026422;28;20030;-60
2022/02/19 06:26:25;;;;;;;0.10;0.10;;;;;;;4.97;100.00;99254.94;5027904;28;20042;-58
2022/02/19 06:29:04;;;;;;;4.60;0.63;;;;;;;5.04;100.00;99266.50;5023905;28;20510;-57
2022/02/19 06:31:32;;;;;;;0.10;0.10;;;;;;;5.05;100.00;99276.03;5008080;28;20497;-58
2022/02/19 06:33:58;;;;;;;0.00;0.00;;;;;;;5.04;100.00;99295.06;5025036;28;20036;-60
2022/02/19 06:36:23;;;;;;;0.57;0.57;;;;;;;5.09;100.00;99295.56;5036132;28;20029;-60
2022/02/19 06:38:52;;;;;;;0.20;0.20;;;;;;;5.05;100.00;99310.72;5027379;28;20022;-59
2022/02/19 06:41:24;;;;;;;0.10;0.10;;;;;;;5.04;100.00;99330.53;5023589;28;20510;-58
2022/02/19 06:44:07;;;;;;;0.10;0.10;;;;;;;4.98;100.00;99347.91;5022167;28;20025;-60
2022/02/19 06:46:33;;;;;;;0.10;0.10;;;;;;;4.95;100.00;99371.84;5032127;28;20112;-59
2022/02/19 06:49:00;;;;;;;0.17;0.17;;;;;;;4.73;100.00;99359.94;5036029;28;20033;-59
2022/02/19 06:51:33;;;;;;;0.10;0.10;;;;;;;4.72;100.00;99350.41;5027465;28;20037;-59
2022/02/19 06:53:58;;;;;;;0.10;0.10;;;;;;;4.59;100.00;99354.28;5019837;28;20022;-57
2022/02/19 06:56:25;;;;;;;0.30;0.30;;;;;;;4.62;100.00;99360.84;5019988;28;20404;-59
2022/02/19 06:58:51;;;;;;;0.17;0.17;;;;;;;4.52;100.00;99370.91;5026607;28;20036;-60
2022/02/19 07:01:18;;;;;;;0.20;0.20;;;;;;;4.53;100.00;99390.31;5027346;28;20091;-60
2022/02/19 07:03:44;;;;;;;0.80;0.28;;;;;;;4.48;100.00;99403.91;5020716;28;20396;-57
2022/02/19 07:06:32;;;;;;;0.10;0.10;;;;;;;4.57;100.00;99399.19;5025838;28;20816;-59
2022/02/19 07:08:57;;;;;;;0.08;0.08;;;;;;;4.61;100.00;99410.69;5025867;28;20120;-59
2022/02/19 07:11:24;;;;;;;3.85;0.45;;;;;;;4.57;100.00;99426.63;5038480;28;20082;-61
2022/02/19 07:13:50;;;;;;;0.10;0.10;;;;;;;4.58;100.00;99430.84;5028601;28;20578;-60
2022/02/19 07:16:15;;;;;;;0.15;0.15;;;;;;;4.35;100.00;99469.09;5027540;28;20152;-57
2022/02/19 07:18:49;;;;;;;0.10;0.10;;;;;;;4.25;100.00;99464.25;5026449;28;20034;-59
2022/02/19 07:21:16;;;;;;;0.10;0.10;;;;;;;4.21;100.00;99460.72;5030271;28;20065;-58
2022/02/19 07:23:43;;;;;;;1.75;0.20;;;;;;;4.21;100.00;99476.69;5036516;28;20395;-61
2022/02/19 07:26:10;;;;;;;0.10;0.10;;;;;;;4.21;100.00;99466.81;5041630;28;20025;-61
2022/02/19 07:28:38;;;;;;;0.10;0.10;;;;;;;4.21;100.00;99458.06;5032780;28;20030;-60
2022/02/19 07:31:06;;;;;;;0.00;0.00;;;;;;;4.22;100.00;99471.03;5028372;28;20063;-57
2022/02/19 07:33:31;;;;;;;0.20;0.20;;;;;;;4.13;100.00;99469.63;5031051;28;20065;-60
2022/02/19 07:36:00;;;;;;;0.10;0.10;;;;;;;4.24;100.00;99473.38;5030449;28;20500;-57
2022/02/19 07:38:26;;;;;;;0.20;0.20;;;;;;;4.23;100.00;99493.13;5030687;28;20037;-60
2022/02/19 07:40:53;;;;;;;0.10;0.10;;;;;;;4.35;100.00;99493.06;5029566;28;20057;-59
2022/02/19 07:43:25;;;;;;;0.20;0.20;;;;;;;4.36;100.00;99502.59;5026273;28;20033;-56
2022/02/19 07:46:09;;;;;;;0.43;0.17;;;;;;;4.39;100.00;99497.34;5051709;28;20095;-57
2022/02/19 07:58:17;;;;;;;0.15;0.15;;;;;;;4.65;100.00;99490.75;5049216;28;20120;-56
2022/02/19 08:00:32;;;;;;;0.20;0.20;;;;;;;4.84;100.00;99523.59;5032288;28;20033;-60
2022/02/19 08:02:59;;;;;;;0.70;0.35;;;;;;;4.90;100.00;99530.25;5038735;28;20396;-57
2022/02/19 08:05:25;;;;;;;0.47;0.32;;;;;;;4.98;100.00;99528.50;5034886;28;20021;-60
2022/02/19 08:07:51;;;;;;;1.52;0.20;;;;;;;4.91;100.00;99537.13;5048856;28;20051;-57
2022/02/19 08:10:18;;;;;;;0.10;0.10;;;;;;;5.06;100.00;99547.03;5048229;28;20036;-56
2022/02/19 08:12:43;;;;;;;0.13;0.13;;;;;;;5.12;100.00;99545.66;5028293;28;20033;-59
2022/02/19 08:15:09;;;;;;;0.17;0.17;;;;;;;5.12;100.00;99558.97;5037389;28;20040;-58
2022/02/19 08:17:34;;;;;;;0.40;0.20;;;;;;;5.26;100.00;99564.66;5034842;28;20550;-59
2022/02/19 08:20:00;;;;;;;0.88;0.17;;;;;;;5.46;100.00;99563.59;5035418;28;20123;-60
2022/02/19 08:22:25;;;;;;;1.77;0.40;;;;;;;5.53;100.00;99567.53;5038708;28;20083;-60
2022/02/19 08:24:51;;;;;;;0.30;0.30;;;;;;;5.62;100.00;99573.44;5024707;28;20033;-60
2022/02/19 08:27:16;;;;;;;3.13;0.52;;;;;;;5.64;100.00;99587.22;5012228;28;20500;-58
2022/02/19 08:29:41;;;;;;;0.65;0.20;;;;;;;5.70;100.00;99586.63;5024452;28;20037;-60
2022/02/19 08:32:07;;;;;;;0.10;0.10;;;;;;;5.71;100.00;99608.78;5030693;28;20048;-60
2022/02/19 08:34:33;;;;;;;0.57;0.50;;;;;;;5.75;100.00;99631.00;5028347;28;20091;-58
2022/02/19 08:36:58;;;;;;;0.20;0.20;;;;;;;5.70;100.00;99633.91;5009563;28;20491;-60
2022/02/19 08:39:24;;;;;;;0.10;0.10;;;;;;;5.65;100.00;99648.31;5023424;28;20042;-58
2022/02/19 08:41:50;;;;;;;0.20;0.20;;;;;;;5.68;100.00;99652.97;5006339;28;20052;-59
2022/02/19 08:44:15;;;;;;;0.10;0.10;;;;;;;5.62;100.00;99658.91;5022468;28;20037;-60
2022/02/19 08:46:40;;;;;;;0.10;0.10;;;;;;;5.70;100.00;99671.28;5026424;28;20037;-60
2022/02/19 08:49:06;;;;;;;0.20;0.20;;;;;;;5.74;100.00;99667.59;5014072;28;20512;-60
2022/02/19 08:51:31;;;;;;;0.10;0.10;;;;;;;5.68;100.00;99684.22;5029735;28;20500;-57
2022/02/19 08:53:57;;;;;;;0.57;0.32;;;;;;;5.66;100.00;99686.47;5020908;28;20083;-60
2022/02/19 08:56:22;;;;;;;0.13;0.13;;;;;;;5.69;100.00;99694.56;5015626;28;20048;-58
2022/02/19 08:58:48;;;;;;;0.20;0.20;;;;;;;5.62;100.00;99698.94;5019553;28;20041;-59
2022/02/19 09:01:14;;;;;;;0.60;0.20;;;;;;;5.69;100.00;99707.16;5015763;28;20034;-61
2022/02/19 09:03:40;;;;;;;0.30;0.30;;;;;;;5.77;100.00;99716.88;5019622;28;20108;-60
2022/02/19 09:06:05;;;;;;;0.20;0.20;;;;;;;5.74;100.00;99718.34;5039696;28;20029;-60
2022/02/19 09:08:31;;;;;;;0.20;0.20;;;;;;;5.76;100.00;99726.00;5025687;28;20046;-59
2022/02/19 09:10:56;;;;;;;0.22;0.20;;;;;;;5.80;100.00;99718.84;5018554;28;20038;-60
2022/02/19 09:13:22;;;;;;;0.10;0.10;;;;;;;5.85;100.00;99737.31;5016686;28;20030;-60
2022/02/19 09:15:49;;;;;;;0.25;0.10;;;;;;;5.78;100.00;99753.16;5011975;28;20045;-59
2022/02/19 09:18:16;;;;;;;0.68;0.32;;;;;;;5.75;100.00;99754.59;5021658;28;20163;-57
2022/02/19 09:20:42;;;;;;;0.20;0.20;;;;;;;5.86;100.00;99750.34;5027783;28;20028;-62
2022/02/19 09:23:08;;;;;;;0.20;0.20;;;;;;;5.87;100.00;99785.81;5026968;28;20037;-59
2022/02/19 09:25:34;;;;;;;0.40;0.22;;;;;;;5.86;100.00;99776.28;5014217;28;20232;-61
2022/02/19 09:28:00;;;;;;;0.10;0.10;;;;;;;5.79;100.00;99776.84;5006761;28;20368;-60
2022/02/19 09:30:27;;;;;;;0.10;0.10;;;;;;;5.64;100.00;99803.53;5015491;28;20029;-60
2022/02/19 09:32:52;;;;;;;0.10;0.10;;;;;;;5.57;100.00;99785.44;5006854;28;20046;-60
2022/02/19 09:35:18;;;;;;;0.10;0.10;;;;;;;5.52;100.00;99809.72;5017848;28;20090;-60
2022/02/19 09:37:43;;;;;;;0.20;0.20;;;;;;;5.42;100.00;99824.31;5014229;28;20578;-59
2022/02/19 09:40:11;;;;;;;0.38;0.17;;;;;;;5.45;100.00;99821.00;5018329;28;20500;-60
2022/02/19 09:42:37;;;;;;;0.20;0.20;;;;;;;5.26;100.00;99823.53;5013887;28;20442;-60
2022/02/19 09:45:06;;;;;;;0.10;0.10;;;;;;;5.22;100.00;99833.31;5012575;28;20031;-60
2022/02/19 09:47:32;;;;;;;0.63;0.30;;;;;;;5.12;100.00;99831.13;5025967;28;20052;-60
2022/02/19 09:49:58;;;;;;;0.10;0.10;;;;;;;5.14;100.00;99860.13;5024125;28;20041;-59
2022/02/19 09:52:24;;;;;;;0.10;0.10;;;;;;;5.22;100.00;99865.34;5023699;28;20555;-58
2022/02/19 09:54:51;;;;;;;0.20;0.20;;;;;;;5.17;100.00;99868.22;5029143;28;20112;-58
2022/02/19 09:57:16;;;;;;;0.15;0.15;;;;;;;5.05;100.00;99862.16;5025986;28;20087;-59
2022/02/19 09:59:42;;;;;;;0.52;0.52;;;;;;;4.96;100.00;99864.94;5011976;28;20128;-60
2022/02/19 10:02:09;;;;;;;0.10;0.10;;;;;;;4.99;100.00;99866.94;4999196;28;20132;-59
2022/02/19 10:04:36;;;;;;;0.20;0.20;;;;;;;4.94;100.00;99874.38;4996621;28;20057;-59
2022/02/19 10:07:15;;;;;;;4.50;0.38;;;;;;;4.99;100.00;99877.63;5010731;28;20051;-59
2022/02/19 10:09:44;;;;;;;0.30;0.30;;;;;;;5.14;100.00;99876.91;5019575;28;20397;-60
2022/02/19 10:12:12;;;;;;;1.67;0.40;;;;;;;5.23;100.00;99888.22;5031029;28;20036;-58
2022/02/19 10:14:39;;;;;;;0.25;0.25;;;;;;;5.23;100.00;99890.91;5020062;28;20034;-60
2022/02/19 10:17:15;;;;;;;0.22;0.10;;;;;;;5.20;100.00;99894.25;5023803;28;20030;-60
2022/02/19 10:19:49;;;;;;;0.43;0.20;;;;;;;5.13;100.00;99910.03;5018350;28;20030;-57
2022/02/19 10:22:17;;;;;;;1.95;0.40;;;;;;;5.11;100.00;99922.94;5031159;28;20044;-59
2022/02/19 10:25:02;;;;;;;0.30;0.30;;;;;;;5.22;100.00;99916.03;5020276;28;20049;-59
2022/02/19 10:27:41;;;;;;;1.05;0.60;;;;;;;5.33;100.00;99914.44;5011609;28;20073;-59
2022/02/19 10:30:08;;;;;;;1.02;0.50;;;;;;;5.42;100.00;99939.09;5019968;28;20036;-60
2022/02/19 10:32:49;;;;;;;1.48;0.68;;;;;;;5.36;100.00;99937.78;5025175;28;20039;-59
2022/02/19 10:35:15;;;;;;;4.78;0.50;;;;;;;5.39;100.00;99942.47;5025894;28;20553;-60
2022/02/19 10:37:49;;;;;;;1.92;0.32;;;;;;;5.44;100.00;99947.56;5035095;28;20021;-60
2022/02/19 10:40:46;;;;;;;1.10;0.50;;;;;;;5.28;100.00;99949.38;5024135;28;20073;-60
2022/02/19 10:43:29;;;;;;;2.22;0.60;;;;;;;5.27;100.00;99939.81;5028323;28;20408;-60
2022/02/19 10:45:59;;;;;;;0.20;0.20;;;;;;;5.25;100.00;99952.72;5028595;28;20033;-61
2022/02/19 10:48:27;;;;;;;0.50;0.40;;;;;;;5.19;100.00;99964.72;5032772;28;20381;-61
2022/02/19 10:51:05;;;;;;;1.30;0.52;;;;;;;5.15;100.00;99947.09;5033668;28;20279;-61
2022/02/19 10:53:30;;;;;;;1.38;0.82;;;;;;;5.17;100.00;99945.59;5030502;28;20037;-61
2022/02/19 10:55:56;;;;;;;1.90;0.60;;;;;;;5.31;100.00;99939.91;5040466;28;20198;-61
2022/02/19 10:58:23;;;;;;;1.50;0.52;;;;;;;5.52;100.00;99953.13;5035634;28;20513;-60
2022/02/19 11:00:49;;;;;;;0.52;0.43;;;;;;;5.62;100.00;99949.97;5039040;28;20061;-60
2022/02/19 11:03:16;;;;;;;1.73;0.47;;;;;;;5.74;100.00;99944.56;5042967;28;20185;-61
2022/02/19 11:05:42;;;;;;;0.50;0.50;;;;;;;5.69;100.00;99939.50;5038453;28;20400;-61
2022/02/19 11:08:08;;;;;;;0.90;0.60;;;;;;;5.73;100.00;99951.06;5030916;28;20025;-60
2022/02/19 11:10:34;;;;;;;1.52;1.40;;;;;;;5.81;100.00;99947.44;5020896;28;20037;-61
2022/02/19 11:13:00;;;;;;;0.20;0.20;;;;;;;5.89;100.00;99960.69;5022561;28;20411;-57
2022/02/19 11:15:27;;;;;;;1.63;0.40;;;;;;;5.92;100.00;99951.97;5021629;28;20040;-60
2022/02/19 11:17:53;;;;;;;4.13;0.30;;;;;;;6.04;100.00;99959.94;5024390;28;20041;-58
2022/02/19 11:20:19;;;;;;;0.75;0.35;;;;;;;5.96;100.00;99965.47;5029307;28;20428;-58
2022/02/19 11:22:45;;;;;;;0.65;0.30;;;;;;;5.82;100.00;99970.38;5026352;28;20033;-56
2022/02/19 11:25:14;;;;;;;0.25;0.22;;;;;;;5.87;100.00;99962.13;5031307;28;20446;-55
2022/02/19 11:27:47;;;;;;;0.10;0.10;;;;;;;6.05;100.00;99976.78;5032027;28;20443;-59
2022/02/19 11:30:12;;;;;;;0.85;0.40;;;;;;;6.08;100.00;99984.88;5026060;28;20045;-58
2022/02/19 11:32:42;;;;;;;0.57;0.25;;;;;;;6.07;100.00;99991.34;5028864;28;20063;-57
2022/02/19 11:35:09;;;;;;;0.00;0.00;;;;;;;6.21;100.00;99985.59;5026061;28;20832;-58
2022/02/19 11:37:40;;;;;;;0.75;0.75;;;;;;;6.23;100.00;99991.38;5028379;28;20465;-58
2022/02/19 11:40:10;;;;;;;0.10;0.10;;;;;;;6.43;100.00;100006.41;5029546;28;20029;-57
2022/02/19 11:42:38;;;;;;;1.33;0.50;;;;;;;6.46;100.00;100005.75;5019634;28;20034;-56
2022/02/19 11:45:29;;;;;;;0.22;0.20;;;;;;;6.47;100.00;100006.50;5023392;28;20550;-56
2022/02/19 11:48:14;;;;;;;0.40;0.40;;;;;;;6.37;100.00;100013.13;5035906;28;20030;-57
2022/02/19 11:50:43;;;;;;;1.08;0.30;;;;;;;6.43;100.00;100025.13;5032503;28;20056;-59